createdAt,value
2018-04-10T00:00:57.847Z,63.70
2018-04-10T00:03:26.124Z,64.70
2018-04-10T00:05:53.539Z,65.40
2018-04-10T00:08:20.997Z,65.90
2018-04-10T00:10:49.194Z,66.70
2018-04-10T00:13:16.635Z,66.80
2018-04-10T00:15:44.832Z,67.20
2018-04-10T00:18:12.304Z,67.20
2018-04-10T00:20:39.752Z,66.80
2018-04-10T00:23:08.102Z,66.80
2018-04-10T00:25:36.291Z,67.20
2018-04-10T00:28:03.737Z,67.10
2018-04-10T00:30:31.978Z,67.00
2018-04-10T00:32:59.419Z,67.00
2018-04-10T00:35:26.879Z,67.40
2018-04-10T00:37:54.327Z,67.90
2018-04-10T00:40:21.780Z,68.70
2018-04-10T00:42:49.236Z,68.40
2018-04-10T00:45:16.680Z,68.60
2018-04-10T00:47:44.127Z,69.10
2018-04-10T00:50:11.602Z,69.40
2018-04-10T00:52:39.042Z,68.80
2018-04-10T00:55:06.522Z,68.90
2018-04-10T00:57:33.950Z,68.70
2018-04-10T01:00:01.405Z,68.50
2018-04-10T01:02:28.882Z,68.50
2018-04-10T01:04:56.324Z,68.10
2018-04-10T01:07:23.779Z,68.40
2018-04-10T01:09:51.424Z,68.20
2018-04-10T01:12:19.657Z,68.30
2018-04-10T01:14:47.875Z,68.20
2018-04-10T01:17:16.106Z,68.70
2018-04-10T01:19:43.523Z,68.70
2018-04-10T01:22:10.968Z,69.20
2018-04-10T01:24:39.184Z,70.60
2018-04-10T01:27:06.615Z,70.60
2018-04-10T01:29:34.068Z,68.90
2018-04-10T01:32:01.505Z,69.40
2018-04-10T01:34:28.957Z,69.50
2018-04-10T01:36:56.382Z,69.70
2018-04-10T01:39:23.838Z,70.50
2018-04-10T01:41:51.286Z,70.90
2018-04-10T01:44:18.737Z,70.60
2018-04-10T01:46:46.197Z,70.90
2018-04-10T01:49:13.622Z,71.60
2018-04-10T01:51:41.814Z,73.40
2018-04-10T01:54:09.263Z,73.40
2018-04-10T01:56:36.703Z,74.50
2018-04-10T01:59:05.039Z,74.10
2018-04-10T02:01:32.468Z,74.00
2018-04-10T02:04:00.075Z,75.00
2018-04-10T02:06:27.533Z,74.20
2018-04-10T02:08:54.979Z,74.00
2018-04-10T02:11:22.419Z,74.20
2018-04-10T02:13:49.863Z,74.40
2018-04-10T02:16:17.313Z,74.20
2018-04-10T02:18:45.523Z,73.80
2018-04-10T02:21:13.000Z,73.70
2018-04-10T02:23:40.438Z,73.50
2018-04-10T02:26:08.311Z,74.10
2018-04-10T02:28:35.777Z,73.50
2018-04-10T02:31:03.295Z,73.80
2018-04-10T02:33:30.743Z,74.10
2018-04-10T02:35:58.191Z,74.00
2018-04-10T02:38:26.408Z,74.70
2018-04-10T02:40:53.850Z,74.60
2018-04-10T02:43:21.296Z,74.60
2018-04-10T02:45:48.728Z,75.00
2018-04-10T02:48:16.969Z,75.90
2018-04-10T02:50:44.604Z,75.90
2018-04-10T02:53:12.039Z,77.50
2018-04-10T02:55:39.474Z,78.80
2018-04-10T02:58:08.595Z,77.40
2018-04-10T03:00:36.052Z,77.40
2018-04-10T03:03:03.709Z,77.80
2018-04-10T03:05:31.899Z,78.40
2018-04-10T03:07:59.345Z,77.40
2018-04-10T03:10:26.782Z,77.40
2018-04-10T03:12:55.000Z,78.10
2018-04-10T03:15:22.456Z,78.10
2018-04-10T03:17:49.888Z,78.30
2018-04-10T03:20:17.344Z,78.30
2018-04-10T03:22:45.567Z,78.80
2018-04-10T03:25:13.009Z,78.80
2018-04-10T03:27:40.442Z,79.10
2018-04-10T03:30:08.471Z,78.70
2018-04-10T03:32:35.911Z,79.80
2018-04-10T03:35:03.415Z,80.20
2018-04-10T03:37:30.871Z,80.10
2018-04-10T03:39:59.085Z,80.90
2018-04-10T03:42:26.526Z,80.70
2018-04-10T03:44:53.989Z,80.40
2018-04-10T03:47:21.423Z,79.80
2018-04-10T03:49:49.641Z,80.70
2018-04-10T03:52:17.087Z,80.80
2018-04-10T03:54:44.510Z,81.10
2018-04-10T03:57:12.727Z,80.70
2018-04-10T03:59:40.189Z,80.50
2018-04-10T04:02:08.535Z,81.20
2018-04-10T04:04:35.974Z,82.20
2018-04-10T04:07:03.405Z,82.70
2018-04-10T04:09:30.845Z,83.50
2018-04-10T04:11:58.305Z,83.30
2018-04-10T04:14:25.786Z,84.00
2018-04-10T04:17:05.100Z,84.10
2018-04-10T04:19:44.561Z,84.40
2018-04-10T04:22:24.708Z,84.60
2018-04-10T04:24:52.146Z,85.20
2018-04-10T04:27:19.595Z,85.80
2018-04-10T04:29:47.049Z,85.50
2018-04-10T04:32:14.474Z,85.20
2018-04-10T04:34:41.971Z,85.50
2018-04-10T04:37:09.395Z,85.40
2018-04-10T04:39:36.841Z,84.70
2018-04-10T04:42:05.052Z,83.60
2018-04-10T04:44:32.509Z,83.60
2018-04-10T04:46:59.947Z,83.30
2018-04-10T04:49:27.383Z,83.70
2018-04-10T04:51:55.604Z,84.50
2018-04-10T04:54:23.059Z,84.40
2018-04-10T04:56:50.495Z,84.50
2018-04-10T04:59:17.927Z,83.70
2018-04-10T05:01:46.130Z,82.90
2018-04-10T05:04:13.566Z,82.80
2018-04-10T05:06:41.827Z,82.60
2018-04-10T05:09:10.215Z,82.30
2018-04-10T05:11:37.623Z,82.30
2018-04-10T05:14:05.074Z,82.50
2018-04-10T05:16:32.506Z,83.40
2018-04-10T05:19:00.024Z,83.30
2018-04-10T05:21:27.463Z,83.50
2018-04-10T05:23:55.616Z,84.20
2018-04-10T05:26:23.048Z,84.10
2018-04-10T05:28:51.254Z,82.40
2018-04-10T05:31:18.701Z,82.30
2018-04-10T05:33:46.143Z,82.40
2018-04-10T05:36:13.581Z,82.20
2018-04-10T05:38:41.776Z,80.90
2018-04-10T05:41:09.217Z,80.90
2018-04-10T05:43:37.415Z,80.40
2018-04-10T05:46:04.899Z,80.40
2018-04-10T05:48:32.363Z,79.90
2018-04-10T05:50:59.803Z,80.00
2018-04-10T05:53:27.226Z,79.80
2018-04-10T05:55:55.444Z,79.80
2018-04-10T05:58:22.875Z,79.70
2018-04-10T06:00:50.316Z,80.00
2018-04-10T06:03:18.538Z,79.50
2018-04-10T06:05:46.043Z,79.40
2018-04-10T06:08:13.510Z,78.90
2018-04-10T06:10:41.708Z,78.00
2018-04-10T06:13:09.167Z,77.90
2018-04-10T06:15:37.351Z,75.70
2018-04-10T06:18:04.790Z,75.70
2018-04-10T06:20:32.235Z,75.20
2018-04-10T06:23:01.088Z,73.00
2018-04-10T06:25:28.551Z,73.00
2018-04-10T06:27:55.990Z,71.60
2018-04-10T06:30:23.443Z,70.30
2018-04-10T06:32:50.880Z,69.00
2018-04-10T06:35:18.315Z,67.70
2018-04-10T06:37:46.505Z,64.40
2018-04-10T06:40:13.964Z,64.30
2018-04-10T06:42:41.403Z,62.80
2018-04-10T06:45:09.800Z,62.60
2018-04-10T06:47:37.275Z,62.60
2018-04-10T06:50:05.487Z,63.40
2018-04-10T06:52:32.935Z,64.30
2018-04-10T06:55:01.311Z,62.30
2018-04-10T06:57:28.763Z,59.50
2018-04-10T06:59:56.251Z,58.10
2018-04-10T07:02:23.676Z,58.90
2018-04-10T07:04:51.120Z,59.30
2018-04-10T07:07:19.273Z,59.30
2018-04-10T07:09:46.731Z,59.10
2018-04-10T07:12:14.174Z,58.90
2018-04-10T07:14:42.383Z,58.80
2018-04-10T07:17:09.841Z,58.80
2018-04-10T07:19:37.282Z,58.50
2018-04-10T07:22:04.728Z,59.20
2018-04-10T07:24:32.927Z,60.70
2018-04-10T07:27:00.381Z,60.70
2018-04-10T07:29:27.841Z,61.10
2018-04-10T07:31:55.261Z,61.20
2018-04-10T07:34:23.470Z,60.20
2018-04-10T07:36:50.907Z,60.20
2018-04-10T07:39:18.343Z,60.80
2018-04-10T07:41:46.543Z,59.70
2018-04-10T07:44:14.031Z,59.70
2018-04-10T07:46:41.466Z,59.40
2018-04-10T07:49:09.759Z,57.70
2018-04-10T07:51:37.211Z,57.70
2018-04-10T07:54:04.643Z,57.60
2018-04-10T07:56:32.850Z,54.60
2018-04-10T07:59:00.288Z,54.50
2018-04-10T08:01:27.718Z,53.10
2018-04-10T08:03:55.925Z,52.10
2018-04-10T08:06:23.359Z,52.10
2018-04-10T08:08:51.565Z,50.10
2018-04-10T08:11:19.039Z,50.00
2018-04-10T08:13:46.472Z,47.70
2018-04-10T08:16:13.895Z,49.90
2018-04-10T08:18:42.133Z,48.80
2018-04-10T08:21:09.571Z,48.80
2018-04-10T08:23:37.015Z,49.50
2018-04-10T08:26:04.472Z,49.40
2018-04-10T08:28:31.911Z,49.60
2018-04-10T08:31:00.118Z,48.90
2018-04-10T08:33:27.543Z,48.90
2018-04-10T08:35:55.741Z,49.20
2018-04-10T08:38:23.189Z,49.20
2018-04-10T08:40:51.372Z,49.50
2018-04-10T08:43:18.811Z,49.50
2018-04-10T08:45:47.119Z,47.50
2018-04-10T08:48:14.540Z,47.40
2018-04-10T08:50:42.744Z,44.40
2018-04-10T08:53:10.202Z,44.30
2018-04-10T08:55:37.628Z,42.10
2018-04-10T08:58:06.489Z,39.50
2018-04-10T09:00:33.923Z,39.50
2018-04-10T09:03:01.365Z,38.70
2018-04-10T09:05:28.809Z,38.90
2018-04-10T09:07:56.244Z,38.10
2018-04-10T09:10:24.468Z,34.60
2018-04-10T09:12:51.915Z,34.50
2018-04-10T09:15:19.348Z,33.60
2018-04-10T09:17:47.554Z,31.00
2018-04-10T09:20:15.803Z,31.00
2018-04-10T09:22:43.249Z,30.40
2018-04-10T09:25:11.461Z,29.10
2018-04-10T09:27:38.905Z,29.00
2018-04-10T09:30:07.094Z,30.20
2018-04-10T09:32:34.530Z,30.10
2018-04-10T09:35:01.967Z,31.00
2018-04-10T09:37:30.185Z,28.70
2018-04-10T09:39:57.628Z,28.70
2018-04-10T09:42:25.089Z,30.30
2018-04-10T09:44:52.543Z,31.00
2018-04-10T09:47:19.982Z,31.00
2018-04-10T09:49:48.185Z,32.80
2018-04-10T09:52:15.645Z,32.80
2018-04-10T09:54:43.079Z,32.30
2018-04-10T09:57:10.512Z,33.90
2018-04-10T09:59:37.969Z,33.90
2018-04-10T10:02:05.409Z,34.00
2018-04-10T10:04:32.859Z,32.70
2018-04-10T10:07:00.289Z,32.60
2018-04-10T10:09:27.732Z,33.60
2018-04-10T10:11:55.164Z,32.00
2018-04-10T10:14:23.377Z,33.50
2018-04-10T10:16:50.815Z,33.50
2018-04-10T10:19:18.260Z,33.10
2018-04-10T10:21:46.464Z,32.30
2018-04-10T10:24:14.744Z,32.40
2018-04-10T10:26:42.207Z,32.30
2018-04-10T10:29:09.652Z,31.10
2018-04-10T10:31:37.091Z,32.10
2018-04-10T10:34:05.324Z,31.10
2018-04-10T10:36:32.773Z,31.00
2018-04-10T10:39:00.195Z,30.20
2018-04-10T10:41:27.623Z,28.20
2018-04-10T10:43:55.844Z,28.50
2018-04-10T10:46:23.267Z,28.40
2018-04-10T10:48:51.484Z,26.00
2018-04-10T10:51:19.691Z,26.00
2018-04-10T10:53:47.140Z,25.70
2018-04-10T10:56:14.605Z,25.30
2018-04-10T10:58:42.042Z,24.40
2018-04-10T11:01:09.496Z,23.70
2018-04-10T11:03:36.954Z,24.50
2018-04-10T11:06:04.399Z,25.60
2018-04-10T11:08:31.828Z,25.10
2018-04-10T11:10:59.284Z,24.10
2018-04-10T11:13:27.603Z,23.50
2018-04-10T11:15:55.085Z,23.50
2018-04-10T11:18:22.524Z,23.80
2018-04-10T11:20:50.731Z,24.10
2018-04-10T11:23:18.164Z,24.00
2018-04-10T11:25:45.612Z,24.00
2018-04-10T11:28:13.061Z,23.80
2018-04-10T11:30:40.479Z,25.00
2018-04-10T11:33:07.918Z,25.40
2018-04-10T11:35:35.403Z,25.20
2018-04-10T11:38:02.851Z,26.80
2018-04-10T11:40:31.068Z,24.70
2018-04-10T11:42:58.508Z,24.70
2018-04-10T11:45:25.945Z,24.10
2018-04-10T11:47:54.151Z,25.40
2018-04-10T11:50:21.611Z,25.30
2018-04-10T11:52:49.046Z,24.10
2018-04-10T11:55:16.489Z,24.40
2018-04-10T11:57:44.706Z,23.60
2018-04-10T12:00:12.206Z,23.50
2018-04-10T12:02:39.590Z,24.10
2018-04-10T12:05:07.037Z,22.80
2018-04-10T12:07:35.239Z,24.30
2018-04-10T12:10:02.687Z,24.30
2018-04-10T12:12:30.193Z,24.50
2018-04-10T12:14:57.634Z,23.60
2018-04-10T12:17:25.075Z,23.70
2018-04-10T12:19:52.516Z,23.50
2018-04-10T12:22:19.955Z,23.90
2018-04-10T12:24:48.174Z,24.40
2018-04-10T12:27:15.619Z,24.30
2018-04-10T12:29:43.051Z,23.80
2018-04-10T12:32:10.515Z,23.50
2018-04-10T12:34:37.967Z,24.60
2018-04-10T12:37:06.176Z,22.50
2018-04-10T12:39:33.630Z,22.50
2018-04-10T12:42:01.884Z,23.80
2018-04-10T12:44:29.338Z,23.50
2018-04-10T12:46:57.535Z,24.00
2018-04-10T12:49:24.974Z,23.90
2018-04-10T12:51:52.409Z,22.80
2018-04-10T12:54:20.729Z,23.60
2018-04-10T12:56:48.161Z,23.60
2018-04-10T12:59:16.359Z,23.80
2018-04-10T13:01:43.796Z,23.80
2018-04-10T13:04:11.246Z,24.60
2018-04-10T13:06:39.435Z,24.20
2018-04-10T13:09:06.868Z,24.10
2018-04-10T13:11:35.094Z,22.80
2018-04-10T13:14:02.565Z,22.70
2018-04-10T13:16:29.966Z,22.80
2018-04-10T13:18:58.168Z,22.20
2018-04-10T13:21:25.622Z,22.10
2018-04-10T13:23:53.055Z,22.30
2018-04-10T13:26:21.264Z,23.00
2018-04-10T13:28:48.719Z,23.00
2018-04-10T13:31:16.187Z,22.40
2018-04-10T13:33:43.628Z,22.10
2018-04-10T13:36:11.808Z,23.10
2018-04-10T13:38:39.239Z,23.10
2018-04-10T13:41:06.686Z,22.80
2018-04-10T13:43:34.887Z,23.20
2018-04-10T13:46:02.339Z,23.20
2018-04-10T13:48:29.767Z,23.60
2018-04-10T13:50:57.987Z,23.70
2018-04-10T13:53:25.438Z,23.70
2018-04-10T13:55:52.879Z,23.40
2018-04-10T13:58:20.323Z,23.30
2018-04-10T14:00:48.549Z,24.00
2018-04-10T14:03:15.991Z,23.90
2018-04-10T14:05:43.435Z,24.00
2018-04-10T14:08:10.873Z,24.00
2018-04-10T14:10:39.080Z,23.70
2018-04-10T14:13:06.511Z,23.70
2018-04-10T14:15:34.819Z,24.70
2018-04-10T14:18:02.318Z,24.70
2018-04-10T14:20:29.761Z,25.30
2018-04-10T14:22:57.178Z,25.40
2018-04-10T14:25:24.635Z,25.60
2018-04-10T14:27:52.180Z,26.40
2018-04-10T14:30:20.414Z,26.20
2018-04-10T14:32:47.855Z,26.10
2018-04-10T14:35:15.290Z,26.50
2018-04-10T14:37:42.735Z,27.00
2018-04-10T14:40:10.175Z,27.10
2018-04-10T14:42:38.400Z,27.50
2018-04-10T14:45:05.845Z,27.50
2018-04-10T14:47:33.336Z,27.80
2018-04-10T14:50:00.707Z,28.90
2018-04-10T14:52:28.156Z,28.80
2018-04-10T14:54:55.585Z,28.90
2018-04-10T14:57:23.034Z,29.40
2018-04-10T14:59:50.480Z,29.90
2018-04-10T15:02:17.951Z,30.60
2018-04-10T15:04:45.386Z,30.60
2018-04-10T15:07:12.883Z,30.90
2018-04-10T15:09:40.339Z,30.80
2018-04-10T15:12:07.786Z,30.90
2018-04-10T15:14:35.199Z,29.20
2018-04-10T15:17:03.455Z,29.10
2018-04-10T15:19:30.887Z,29.00
2018-04-10T15:21:58.335Z,29.20
2018-04-10T15:24:25.813Z,29.60
2018-04-10T15:26:53.358Z,29.20
2018-04-10T15:29:20.815Z,29.10
2018-04-10T15:31:48.283Z,29.20
2018-04-10T15:34:15.775Z,29.50
2018-04-10T15:36:43.195Z,29.80
2018-04-10T15:39:10.659Z,30.00
2018-04-10T15:41:38.099Z,30.80
2018-04-10T15:44:05.559Z,31.60
2018-04-10T15:46:33.007Z,32.30
2018-04-10T15:49:00.449Z,32.60
2018-04-10T15:51:27.895Z,33.10
2018-04-10T15:53:55.331Z,34.00
2018-04-10T15:56:23.568Z,36.00
2018-04-10T15:58:50.994Z,35.40
2018-04-10T16:01:18.534Z,35.50
2018-04-10T16:03:45.958Z,36.00
2018-04-10T16:06:13.500Z,36.40
2018-04-10T16:08:40.929Z,36.10
2018-04-10T16:11:08.372Z,36.70
2018-04-10T16:13:36.589Z,37.90
2018-04-10T16:16:04.033Z,37.90
2018-04-10T16:18:31.469Z,37.70
2018-04-10T16:20:58.916Z,38.00
2018-04-10T16:23:26.412Z,39.50
2018-04-10T16:25:54.626Z,39.50
2018-04-10T16:28:22.091Z,39.20
2018-04-10T16:30:49.524Z,39.90
2018-04-10T16:33:16.987Z,39.80
2018-04-10T16:35:44.431Z,40.70
2018-04-10T16:38:12.707Z,41.30
2018-04-10T16:40:40.152Z,41.30
2018-04-10T16:43:07.583Z,41.40
2018-04-10T16:45:35.033Z,41.70
2018-04-10T16:48:03.269Z,41.70
2018-04-10T16:50:30.715Z,41.70
2018-04-10T16:52:58.168Z,41.80
2018-04-10T16:55:25.603Z,41.90
2018-04-10T16:57:53.059Z,42.40
2018-04-10T17:00:20.495Z,42.60
2018-04-10T17:02:48.704Z,42.60
2018-04-10T17:05:16.143Z,42.60
2018-04-10T17:07:43.604Z,42.60
2018-04-10T17:10:11.054Z,42.10
2018-04-10T17:12:38.548Z,42.30
2018-04-10T17:15:06.724Z,42.00
2018-04-10T17:17:34.180Z,42.00
2018-04-10T17:20:01.631Z,42.30
2018-04-10T17:22:29.078Z,42.30
2018-04-10T17:24:56.566Z,41.80
2018-04-10T17:27:24.043Z,42.50
2018-04-10T17:29:52.397Z,42.80
2018-04-10T17:32:19.877Z,43.30
2018-04-10T17:34:47.321Z,43.50
2018-04-10T17:37:14.772Z,43.90
2018-04-10T17:39:42.203Z,43.80
2018-04-10T17:42:10.312Z,44.00
2018-04-10T17:44:37.836Z,44.20
2018-04-10T17:47:05.264Z,44.70
2018-04-10T17:49:33.460Z,45.40
2018-04-10T17:52:00.903Z,45.40
2018-04-10T17:54:28.345Z,44.80
2018-04-10T17:56:56.557Z,45.40
2018-04-10T17:59:23.984Z,45.40
2018-04-10T18:01:52.604Z,45.80
2018-04-10T18:04:20.031Z,45.70
2018-04-10T18:06:48.402Z,45.60
2018-04-10T18:09:16.600Z,46.20
2018-04-10T18:11:44.028Z,46.10
2018-04-10T18:14:12.242Z,46.40
2018-04-10T18:16:39.682Z,46.40
2018-04-10T18:19:07.702Z,46.50
2018-04-10T18:21:35.631Z,46.60
2018-04-10T18:24:03.071Z,46.70
2018-04-10T18:26:31.288Z,47.10
2018-04-10T18:28:58.735Z,47.00
2018-04-10T18:31:26.176Z,48.00
2018-04-10T18:33:53.640Z,47.70
2018-04-10T18:36:21.071Z,48.00
2018-04-10T18:38:49.280Z,48.10
2018-04-10T18:41:16.704Z,48.10
2018-04-10T18:43:44.923Z,49.30
2018-04-10T18:46:12.352Z,49.20
2018-04-10T18:48:39.794Z,49.40
2018-04-10T18:51:07.991Z,49.80
2018-04-10T18:53:35.685Z,49.70
2018-04-10T18:56:03.120Z,49.60
2018-04-10T18:58:30.553Z,49.50
2018-04-10T19:00:58.752Z,49.30
2018-04-10T19:03:26.187Z,49.30
2018-04-10T19:05:53.806Z,49.40
2018-04-10T19:08:21.248Z,49.00
2018-04-10T19:10:48.684Z,49.60
2018-04-10T19:13:16.127Z,49.10
2018-04-10T19:15:43.551Z,49.10
2018-04-10T19:18:11.023Z,49.70
2018-04-10T19:20:39.220Z,49.80
2018-04-10T19:23:06.653Z,49.90
2018-04-10T19:25:34.088Z,49.70
2018-04-10T19:28:01.527Z,49.80
2018-04-10T19:30:28.963Z,50.50
2018-04-10T19:32:56.403Z,46.60
2018-04-10T19:35:23.843Z,47.50
2018-04-10T19:37:52.043Z,48.50
2018-04-10T19:40:19.495Z,48.40
2018-04-10T19:42:46.922Z,49.10
2018-04-10T19:45:14.363Z,50.00
2018-04-10T19:47:41.795Z,50.70
2018-04-10T19:50:09.233Z,52.20
2018-04-10T19:52:36.660Z,53.30
2018-04-10T19:55:04.871Z,54.00
2018-04-10T19:57:32.299Z,53.90
2018-04-10T20:00:00.503Z,55.10
2018-04-10T20:02:27.930Z,55.10
2018-04-10T20:04:56.134Z,55.50
2018-04-10T20:07:23.576Z,55.50
2018-04-10T20:09:51.021Z,56.20
2018-04-10T20:12:19.217Z,56.90
2018-04-10T20:14:46.647Z,56.90
2018-04-10T20:17:14.851Z,57.40
2018-04-10T20:19:42.279Z,57.30
2018-04-10T20:22:11.296Z,58.30
2018-04-10T20:24:38.743Z,58.30
2018-04-10T20:27:06.939Z,60.30
2018-04-10T20:29:34.475Z,60.30
2018-04-10T20:32:02.691Z,66.00
2018-04-10T20:34:30.119Z,65.20
2018-04-10T20:36:57.554Z,66.40
2018-04-10T20:39:25.756Z,71.10
2018-04-10T20:44:44.430Z,72.40
2018-04-10T20:47:11.862Z,72.50
2018-04-10T20:49:40.057Z,74.40
2018-04-10T20:52:07.485Z,74.30
2018-04-10T20:54:35.704Z,77.70
2018-04-10T20:57:03.133Z,77.70
2018-04-10T20:59:30.564Z,79.50
2018-04-10T21:01:58.003Z,80.60
2018-04-10T21:04:25.470Z,81.50
2018-04-10T21:06:52.870Z,82.30
2018-04-10T21:09:20.299Z,83.20
2018-04-10T21:11:47.762Z,82.70
2018-04-10T21:14:15.218Z,82.90
2018-04-10T21:16:43.435Z,81.90
2018-04-10T21:19:10.867Z,81.90
2018-04-10T21:21:39.092Z,81.80
2018-04-10T21:24:06.557Z,81.80
2018-04-10T21:26:34.055Z,82.60
2018-04-10T21:29:02.250Z,83.50
2018-04-10T21:31:29.703Z,83.50
2018-04-10T21:33:57.147Z,83.70
2018-04-10T21:36:25.656Z,82.60
2018-04-10T21:38:53.083Z,82.50
2018-04-10T21:41:21.311Z,82.30
2018-04-10T21:43:48.762Z,82.30
2018-04-10T21:46:16.276Z,82.50
2018-04-10T21:48:44.487Z,83.60
2018-04-10T21:51:11.930Z,83.60
2018-04-10T21:53:39.363Z,84.10
2018-04-10T21:56:07.576Z,83.10
2018-04-10T21:58:35.839Z,83.00
2018-04-10T22:01:03.291Z,83.00
2018-04-10T22:03:30.711Z,82.60
2018-04-10T22:05:58.151Z,82.70
2018-04-10T22:08:25.600Z,82.70
2018-04-10T22:10:53.025Z,83.40
2018-04-10T22:13:20.471Z,84.90
2018-04-10T22:15:48.667Z,85.10
2018-04-10T22:18:16.202Z,85.10
2018-04-10T22:20:44.399Z,85.70
2018-04-10T22:23:11.837Z,85.70
2018-04-10T22:25:39.282Z,87.40
2018-04-10T22:28:07.477Z,89.70
2018-04-10T22:30:35.148Z,89.60
2018-04-10T22:33:02.536Z,90.00
2018-04-10T22:35:30.748Z,89.80
2018-04-10T22:37:58.190Z,89.70
2018-04-10T22:40:25.622Z,89.80
2018-04-10T22:42:53.103Z,90.30
2018-04-10T22:45:20.533Z,90.70
2018-04-10T22:47:48.010Z,90.70
2018-04-10T22:50:15.616Z,90.50
2018-04-10T22:52:43.095Z,90.00
2018-04-10T22:55:10.860Z,90.20
2018-04-10T22:57:38.303Z,90.70
2018-04-10T23:00:05.734Z,90.50
2018-04-10T23:02:33.178Z,90.40
2018-04-10T23:05:00.616Z,90.80
2018-04-10T23:07:28.055Z,90.50
2018-04-10T23:09:55.491Z,90.50
2018-04-10T23:12:22.931Z,90.30
2018-04-10T23:14:50.377Z,90.90
2018-04-10T23:17:19.283Z,90.60
2018-04-10T23:19:46.719Z,90.50
2018-04-10T23:22:14.925Z,90.70
2018-04-10T23:24:42.429Z,90.70
2018-04-10T23:27:09.861Z,90.50
2018-04-10T23:29:37.507Z,90.70
2018-04-10T23:32:04.963Z,90.60
2018-04-10T23:34:32.405Z,90.50
2018-04-10T23:37:00.618Z,90.70
2018-04-10T23:39:28.050Z,90.70
2018-04-10T23:41:55.511Z,90.70
2018-04-10T23:44:22.963Z,91.30
2018-04-10T23:46:51.174Z,91.10
2018-04-10T23:49:18.642Z,91.00
2018-04-10T23:51:46.072Z,90.50
2018-04-10T23:54:13.523Z,90.70
2018-04-10T23:56:40.964Z,91.00
2018-04-10T23:59:09.160Z,91.30
